Latest Weather Observations for Derby

IDW60801

Issued at 10:03 am WST Tuesday 22 September 2020 (issued every 10 minutes, with the page automatically refreshed every 10 minutes)

About weather observations | Map of weather stations | Latest weather observations for WA | Other Formats
Station Details ID: 003032 Name: DERBY AERO Lat: -17.37 Lon: 123.66 Height: 6.2 m
Data from the previous 72 hours. | See also: Recent months at Derby
Date/Time
WST
Temp
°C
App
Temp
°C
Dew
Point
°C
Rel
Hum
%
Delta-T
°C
Wind Press
QNH
hPa
Press
MSL
hPa
Rain since
9am
mm
Dir  Spd
km/h
Gust
km/h
Spd
kts
Gust
kts
22/10:00am 34.9 27.8 -1.2 10 17.5 ESE 26 35 14 19 1012.2 1012.2 0.0
22/09:30am 33.7 26.1 -2.1 10 16.9 ESE 28 37 15 20 1012.5 1012.5 0.0
22/09:00am 33.5 26.6 -2.3 10 16.9 ESE 24 37 13 20 1012.7 1012.7 0.4
22/08:30am 32.0 24.4 -2.1 11 15.9 ESE 28 37 15 20 1012.9 1012.9 0.4
22/08:00am 30.9 24.9 -1.8 12 15.2 SE 20 32 11 17 1013.0 1013.0 0.4
22/07:30am 26.5 21.5 -1.3 16 12.6 SSE 15 19 8 10 1013.1 1013.1 0.4
22/07:00am 25.4 20.6 -2.2 16 12.2 SSE 13 17 7 9 1012.9 1012.9 0.0
22/06:30am 23.3 18.5 0.4 22 10.5 S 15 19 8 10 1012.5 1012.5 0.0
22/06:00am 20.8 16.4 0.6 26 9.1 S 13 15 7 8 1012.1 1012.1 0.0
22/05:30am 20.5 16.0 2.3 30 8.4 S 15 17 8 9 1011.7 1011.7 0.0
22/05:00am 20.7 16.9 1.6 28 8.8 S 11 11 6 6 1011.3 1011.3 0.0
22/04:30am 21.2 17.9 -0.1 24 9.5 SSE 7 9 4 5 1011.1 1011.1 0.0
22/04:00am 21.5 17.7 -0.5 23 9.8 S 9 11 5 6 1010.9 1010.9 0.0
22/03:30am 21.4 17.8 0.6 25 9.4 S 9 9 5 5 1010.6 1010.6 0.0
22/03:00am 21.5 18.4 0.1 24 9.6 ESE 6 6 3 3 1010.6 1010.6 0.0
22/02:30am 22.1 18.9 -0.6 22 10.1 SE 6 7 3 4 1010.6 1010.6 0.0
22/02:00am 23.1 19.5 -1.8 19 10.9 SE 7 7 4 4 1010.3 1010.3 0.0
22/01:30am 24.1 20.1 -2.4 17 11.6 SSE 9 11 5 6 1010.3 1010.3 0.0
22/01:00am 24.6 19.8 -2.9 16 12.0 SSE 13 15 7 8 1010.2 1010.2 0.0
22/12:30am 25.9 20.3 -2.7 15 12.6 SSE 17 20 9 11 1010.1 1010.1 0.0
22/12:00am 26.5 20.6 -2.2 15 12.8 SSE 19 22 10 12 1010.1 1010.1 0.0
 
Date/Time
WST
Temp
°C
App
Temp
°C
Dew
Point
°C
Rel
Hum
%
Delta-T
°C
Wind Press
QNH
hPa
Press
MSL
hPa
Rain since
9am
mm
Dir  Spd
km/h
Gust
km/h
Spd
kts
Gust
kts
21/11:30pm 26.9 21.2 -1.0 16 12.8 SSE 19 24 10 13 1010.3 1010.3 0.0
21/11:00pm 27.3 21.5 0.1 17 12.8 SSE 20 26 11 14 1010.4 1010.4 0.0
21/10:30pm 27.5 22.8 3.2 21 12.1 SSE 17 20 9 11 1010.6 1010.6 0.0
21/10:00pm 28.5 23.8 3.4 20 12.6 SSE 17 22 9 12 1010.7 1010.7 0.0
21/09:30pm 29.4 24.7 3.4 19 13.1 SE 17 22 9 12 1010.6 1010.6 0.0
21/09:00pm 29.1 24.9 3.9 20 12.8 SE 15 19 8 10 1010.7 1010.7 0.0
21/08:30pm 28.9 24.7 3.7 20 12.7 SE 15 19 8 10 1010.6 1010.6 0.0
21/08:00pm 29.3 25.4 3.3 19 13.1 SSE 13 17 7 9 1010.4 1010.4 0.0
21/07:30pm 30.0 26.2 3.9 19 13.3 SSE 13 17 7 9 1010.3 1010.3 0.0
21/07:00pm 31.2 26.9 3.3 17 14.2 SSE 15 19 8 10 1010.0 1010.0 0.0
21/06:30pm 32.2 28.1 4.1 17 14.6 S 15 19 8 10 1009.6 1009.6 0.0
21/06:00pm 33.6 28.4 3.4 15 15.6 S 20 24 11 13 1009.2 1009.2 0.0
21/05:30pm 35.2 29.5 2.6 13 16.8 S 22 30 12 16 1008.7 1008.7 0.0
21/05:00pm 36.2 30.4 4.5 14 17.0 SSW 24 33 13 18 1008.4 1008.4 0.0
21/04:30pm 37.2 30.8 3.1 12 17.9 SSW 26 35 14 19 1008.2 1008.2 0.0
21/04:00pm 37.9 31.7 2.4 11 18.6 S 24 35 13 19 1008.1 1008.1 0.0
21/03:30pm 37.6 33.3 3.4 12 18.1 S 15 28 8 15 1008.0 1008.0 0.0
21/03:00pm 37.9 33.3 3.6 12 18.3 SSW 17 28 9 15 1007.9 1007.9 0.0
21/02:30pm 37.3 33.4 5.3 14 17.4 SSW 15 24 8 13 1008.3 1008.3 0.0
21/02:00pm 37.8 34.4 5.7 14 17.6 SSE 13 30 7 16 1008.5 1008.5 0.0
21/01:30pm 37.4 33.9 5.4 14 17.4 SW 13 30 7 16 1008.8 1008.8 0.0
21/01:00pm 36.4 32.9 5.6 15 16.8 S 13 22 7 12 1009.3 1009.3 0.0
21/12:30pm 36.2 31.4 5.5 15 16.7 S 20 28 11 15 1009.7 1009.7 0.0
21/12:00pm 35.7 31.0 5.1 15 16.5 ESE 19 28 10 15 1010.1 1010.1 0.0
21/11:30am 36.5 31.7 5.7 15 16.8 SSE 20 30 11 16 1010.8 1010.8 0.0
21/11:00am 34.8 30.1 5.3 16 15.8 SSE 19 28 10 15 1011.5 1011.5 0.0
21/10:30am 34.2 29.2 4.8 16 15.6 SSE 20 28 11 15 1012.0 1012.0 0.0
21/10:00am 33.9 29.1 4.6 16 15.5 ESE 19 30 10 16 1012.5 1012.5 0.0
21/09:30am 33.3 28.2 5.8 18 14.8 SE 22 30 12 16 1012.8 1012.8 0.0
21/09:00am 31.4 26.3 7.8 23 13.0 SE 24 32 13 17 1013.3 1013.3 0.0
21/08:30am 30.1 25.1 9.6 28 11.5 SE 26 35 14 19 1013.3 1013.3 0.0
21/08:00am 29.6 26.8 14.2 39 9.3 SSE 22 30 12 16 1013.2 1013.2 0.0
21/07:30am 27.5 25.0 17.1 53 6.5 S 26 32 14 17 1012.8 1012.8 0.0
21/07:00am 26.2 25.8 18.9 64 4.7 S 19 24 10 13 1012.6 1012.6 0.0
21/06:30am 24.0 26.0 19.1 74 3.1 S 7 11 4 6 1012.3 1012.3 0.0
21/06:00am 22.4 23.5 17.1 72 3.3 S 7 9 4 5 1012.1 1012.1 0.0
21/05:30am 23.1 24.0 19.3 79 2.4 SSE 13 15 7 8 1011.7 1011.7 0.0
21/05:00am 22.6 23.8 19.0 80 2.3 SE 11 13 6 7 1011.4 1011.4 0.0
21/04:30am 22.6 22.7 17.5 73 3.2 SE 13 15 7 8 1010.9 1010.9 0.0
21/04:00am 22.7 22.4 15.5 64 4.3 SSE 11 15 6 8 1010.4 1010.4 0.0
21/03:30am 23.2 22.2 14.5 58 5.1 SSE 13 15 7 8 1010.3 1010.3 0.0
21/03:00am 23.0 22.2 14.0 57 5.3 SSE 11 13 6 7 1010.1 1010.1 0.0
21/02:30am 23.3 22.5 14.0 56 5.4 S 11 13 6 7 1010.1 1010.1 0.0
21/02:00am 23.7 22.8 13.8 53 5.8 S 11 13 6 7 1009.9 1009.9 0.0
21/01:30am 24.2 23.1 13.1 50 6.4 S 11 13 6 7 1010.0 1010.0 0.0
21/01:00am 24.7 23.9 13.0 48 6.8 SSW 9 11 5 6 1010.3 1010.3 0.0
21/12:30am 25.2 24.2 12.4 45 7.4 SSW 9 9 5 5 1010.6 1010.6 0.0
21/12:00am 25.6 24.9 12.1 43 7.7 S 7 9 4 5 1010.8 1010.8 0.0
 
Date/Time
WST
Temp
°C
App
Temp
°C
Dew
Point
°C
Rel
Hum
%
Delta-T
°C
Wind Press
QNH
hPa
Press
MSL
hPa
Rain since
9am
mm
Dir  Spd
km/h
Gust
km/h
Spd
kts
Gust
kts
20/11:30pm 25.8 24.9 12.6 44 7.6 SSE 9 11 5 6 1010.8 1010.8 0.0
20/11:00pm 26.2 25.4 13.0 44 7.7 SSE 9 9 5 5 1011.0 1011.0 0.0
20/10:30pm 26.4 26.1 12.8 43 7.9 SW 6 9 3 5 1011.1 1011.1 0.0
20/10:00pm 26.9 26.2 13.3 43 8.0 SW 9 13 5 7 1011.2 1011.2 0.0
20/09:30pm 27.9 26.1 13.4 40 8.6 WSW 15 17 8 9 1011.5 1011.5 0.0
20/09:00pm 28.9 26.5 12.8 37 9.5 WSW 17 20 9 11 1011.4 1011.4 0.0
20/08:30pm 28.6 28.2 17.2 50 7.2 W 15 19 8 10 1011.3 1011.3 0.0
20/08:00pm 28.8 29.8 21.1 63 5.1 NW 17 19 9 10 1010.9 1010.9 0.0
20/07:30pm 29.2 29.1 21.4 63 5.2 NW 24 28 13 15 1010.5 1010.5 0.0
20/07:00pm 29.5 29.3 21.2 61 5.5 NNW 24 35 13 19 1010.1 1010.1 0.0
20/06:30pm 29.6 29.6 21.0 60 5.7 NNW 22 28 12 15 1009.8 1009.8 0.0
20/06:00pm 29.8 29.2 20.6 57 6.1 NNW 24 30 13 16 1009.5 1009.5 0.0
20/05:30pm 30.3 28.0 18.4 49 7.7 NNW 28 33 15 18 1009.2 1009.2 0.0
20/05:00pm 31.5 27.8 17.0 41 9.2 NNW 32 39 17 21 1009.0 1009.0 0.0
20/04:30pm 31.9 27.7 16.2 38 9.8 NNW 33 41 18 22 1008.7 1008.7 0.0
20/04:00pm 32.0 29.3 19.6 47 8.2 NW 33 41 18 22 1008.4 1008.4 0.0
20/03:30pm 34.4 30.6 15.8 33 11.7 NW 30 37 16 20 1008.1 1008.1 0.0
20/03:00pm 36.5 33.0 14.5 27 13.7 NW 26 33 14 18 1007.9 1007.9 0.0
20/02:30pm 36.7 33.9 11.5 22 15.0 NNW 17 22 9 12 1008.1 1008.1 0.0
20/02:00pm 36.8 35.0 10.9 21 15.3 NW 11 22 6 12 1008.4 1008.4 0.0
20/01:30pm 36.6 34.6 11.4 22 15.0 WNW 13 20 7 11 1009.0 1009.0 0.0
20/01:00pm 36.4 34.0 12.6 24 14.4 NW 17 22 9 12 1009.5 1009.5 0.0
20/12:30pm 36.8 34.8 10.2 20 15.5 SW 11 19 6 10 1009.8 1009.8 0.0
20/12:00pm 36.0 33.2 8.7 19 15.6 SSW 13 17 7 9 1010.5 1010.5 0.0
20/11:30am 36.3 33.8 8.2 18 15.9 SSW 11 20 6 11 1010.9 1010.9 0.0
20/11:00am 35.0 33.0 10.1 22 14.4 SW 11 17 6 9 1011.5 1011.5 0.0
20/10:30am 33.7 31.7 11.5 26 13.1 S 13 20 7 11 1012.1 1012.1 0.0
20/10:00am 33.1 32.2 13.7 31 11.8 SSW 11 20 6 11 1012.6 1012.6 0.0
20/09:30am 31.5 30.7 15.0 36 10.1 S 13 20 7 11 1012.9 1012.9 0.0
20/09:00am 29.3 30.2 18.4 51 7.0 SSW 11 17 6 9 1013.2 1013.2 0.0
20/08:30am 28.3 29.9 19.2 57 5.9 SSW 9 13 5 7 1013.3 1013.3 0.0
20/08:00am 26.5 28.4 20.6 70 3.9 SSW 11 15 6 8 1013.4 1013.4 0.0
20/07:30am 24.8 27.2 21.5 82 2.2 SSE 11 13 6 7 1013.1 1013.1 0.0
20/07:00am 23.4 26.7 21.8 91 1.1 ESE 7 9 4 5 1013.0 1013.0 0.0
20/06:30am 22.5 25.7 21.7 95 0.5 SSE 7 9 4 5 1012.5 1012.5 0.0
20/06:00am 21.9 24.7 20.9 94 0.7 SE 7 9 4 5 1012.0 1012.0 0.0
20/05:30am 22.0 24.7 20.6 92 0.9 SSE 7 9 4 5 1011.6 1011.6 0.0
20/05:00am 22.2 24.1 20.5 90 1.1 S 11 11 6 6 1011.3 1011.3 0.0
20/04:30am 22.0 24.1 20.1 89 1.2 S 9 9 5 5 1011.0 1011.0 0.0
20/04:00am 22.1 24.0 19.8 87 1.5 SSW 9 11 5 6 1010.9 1010.9 0.0
20/03:30am 22.4 24.4 19.9 86 1.6 SSW 9 11 5 6 1010.7 1010.7 0.0
20/03:00am 22.7 24.9 19.7 83 1.9 SSW 7 9 4 5 1010.8 1010.8 0.0
20/02:30am 22.9 25.1 19.5 81 2.2 SSW 7 9 4 5 1010.9 1010.9 0.0
20/02:00am 23.1 24.9 19.5 80 2.3 S 9 11 5 6 1011.1 1011.1 0.0
20/01:30am 23.6 25.5 19.7 79 2.5 S 9 11 5 6 1011.3 1011.3 0.0
20/01:00am 24.1 26.1 20.0 78 2.7 SSW 9 13 5 7 1011.5 1011.5 0.0
20/12:30am 24.1 25.6 19.0 73 3.2 SSW 9 11 5 6 1011.9 1011.9 0.0
20/12:00am 24.5 25.8 18.4 69 3.9 SSW 9 13 5 7 1012.1 1012.1 0.0
 
Date/Time
WST
Temp
°C
App
Temp
°C
Dew
Point
°C
Rel
Hum
%
Delta-T
°C
Wind Press
QNH
hPa
Press
MSL
hPa
Rain since
9am
mm
Dir  Spd
km/h
Gust
km/h
Spd
kts
Gust
kts
19/11:30pm 24.9 25.8 17.6 64 4.6 SSW 9 11 5 6 1012.3 1012.3 0.0
19/11:00pm 25.5 26.2 17.9 63 4.8 SW 11 13 6 7 1012.4 1012.4 0.0
19/10:30pm 26.0 26.5 17.4 59 5.4 WSW 11 13 6 7 1012.5 1012.5 0.0
19/10:00pm 26.4 26.9 17.5 58 5.6 WSW 11 13 6 7 1012.5 1012.5 0.0
19/09:30pm 27.0 27.3 17.8 57 5.8 W 13 15 7 8 1012.4 1012.4 0.0
19/09:00pm 28.0 27.2 17.2 52 6.8 WNW 17 20 9 11 1012.2 1012.2 0.0
19/08:30pm 28.3 27.9 19.0 57 6.0 WNW 19 22 10 12 1011.9 1011.9 0.0
19/08:00pm 28.7 28.1 20.4 60 5.5 NW 24 28 13 15 1011.6 1011.6 0.0
19/07:30pm 28.7 28.7 21.7 66 4.7 NNW 24 32 13 17 1011.3 1011.3 0.0
19/07:00pm 28.8 28.9 21.8 66 4.7 NNW 24 33 13 18 1011.0 1011.0 0.0
19/06:30pm 28.9 29.1 21.4 64 5.0 NNW 22 30 12 16 1010.4 1010.4 0.0
19/06:00pm 29.4 27.6 17.9 50 7.3 NNW 24 30 13 16 1010.0 1010.0 0.0
19/05:30pm 30.2 26.7 13.5 36 10.0 NNW 24 32 13 17 1009.7 1009.7 0.0
19/05:00pm 31.1 25.9 11.5 30 11.4 NNW 30 35 16 19 1009.6 1009.6 0.0
19/04:30pm 33.5 29.1 8.9 22 13.9 NNW 22 24 12 13 1009.3 1009.3 0.0
19/04:00pm 34.5 30.1 7.5 19 15.0 N 20 24 11 13 1009.2 1009.2 0.0
19/03:30pm 34.5 31.6 12.2 26 13.3 NNW 19 22 10 12 1009.2 1009.2 0.0
19/03:00pm 35.0 32.0 10.8 23 14.2 NNW 17 24 9 13 1009.5 1009.5 0.0
19/02:30pm 34.5 32.3 13.3 27 12.9 NNW 17 26 9 14 1009.8 1009.8 0.0
19/02:00pm 32.9 30.8 17.1 39 10.1 NW 24 30 13 16 1010.1 1010.1 0.0
19/01:30pm 32.5 31.6 19.0 44 8.8 NNW 22 28 12 15 1010.5 1010.5 0.0
19/01:00pm 32.4 32.7 19.6 46 8.4 NW 17 24 9 13 1010.9 1010.9 0.0
19/12:30pm 31.8 31.6 18.4 45 8.7 NW 17 26 9 14 1011.2 1011.2 0.0
19/12:00pm 32.0 31.8 18.6 45 8.7 WNW 17 26 9 14 1011.7 1011.7 0.0
19/11:30am 31.7 32.6 18.3 45 8.6 WNW 11 19 6 10 1012.3 1012.3 0.0
19/11:00am 31.3 32.2 18.3 46 8.4 WNW 11 17 6 9 1012.8 1012.8 0.0
19/10:30am 30.3 31.2 18.4 49 7.7 WNW 11 26 6 14 1013.3 1013.3 0.0

Other formats

Comma delimited format used in spreadsheet applications
http://www.bom.gov.au/fwo/IDW60801/IDW60801.95205.axf

JavaScript Object Notation format (JSON) in row-major order
http://www.bom.gov.au/fwo/IDW60801/IDW60801.95205.json

Data quality

Most of these data are generated automatically and are frequently updated. Quality checks on data are not normally performed. It is possible for incorrect values to appear. Refer to information at About Latest Weather Observations and please check the disclaimer before using these data.